sensor_id;sensor_type;location;lat;lon;timestamp;pressure;altitude;pressure_sealevel;temperature;humidity
5574;BME280;2563;52.242;7.956;2023-02-19T00:02:06;100902.41;;;8.85;100.00
5574;BME280;2563;52.242;7.956;2023-02-19T00:04:31;100916.97;;;8.83;100.00
5574;BME280;2563;52.242;7.956;2023-02-19T00:06:56;100927.25;;;8.83;100.00
5574;BME280;2563;52.242;7.956;2023-02-19T00:09:22;100916.13;;;8.84;100.00
5574;BME280;2563;52.242;7.956;2023-02-19T00:11:47;100919.53;;;8.83;100.00
5574;BME280;2563;52.242;7.956;2023-02-19T00:14:15;100908.38;;;8.85;100.00
5574;BME280;2563;52.242;7.956;2023-02-19T00:16:41;100894.72;;;8.85;100.00
5574;BME280;2563;52.242;7.956;2023-02-19T00:19:11;100879.31;;;8.85;100.00
5574;BME280;2563;52.242;7.956;2023-02-19T00:21:37;100870.72;;;8.86;100.00
5574;BME280;2563;52.242;7.956;2023-02-19T00:24:04;100853.63;;;8.85;100.00
5574;BME280;2563;52.242;7.956;2023-02-19T00:26:31;100848.50;;;8.85;100.00
5574;BME280;2563;52.242;7.956;2023-02-19T00:28:56;100836.56;;;8.84;100.00
5574;BME280;2563;52.242;7.956;2023-02-19T00:31:30;100830.53;;;8.83;100.00
5574;BME280;2563;52.242;7.956;2023-02-19T00:33:58;100835.69;;;8.83;100.00
5574;BME280;2563;52.242;7.956;2023-02-19T00:36:24;100821.16;;;8.84;100.00
5574;BME280;2563;52.242;7.956;2023-02-19T00:38:51;100814.31;;;8.83;100.00
5574;BME280;2563;52.242;7.956;2023-02-19T00:41:18;100805.75;;;8.84;100.00
5574;BME280;2563;52.242;7.956;2023-02-19T00:43:55;100798.88;;;8.84;100.00
5574;BME280;2563;52.242;7.956;2023-02-19T00:46:23;100778.38;;;8.83;100.00
5574;BME280;2563;52.242;7.956;2023-02-19T00:48:49;100768.09;;;8.83;100.00
5574;BME280;2563;52.242;7.956;2023-02-19T00:51:16;100756.94;;;8.85;100.00
5574;BME280;2563;52.242;7.956;2023-02-19T00:53:42;100753.47;;;8.89;100.00
5574;BME280;2563;52.242;7.956;2023-02-19T00:56:08;100751.75;;;8.90;100.00
5574;BME280;2563;52.242;7.956;2023-02-19T00:58:33;100742.31;;;8.92;100.00
5574;BME280;2563;52.242;7.956;2023-02-19T01:00:59;100732.84;;;8.96;100.00
5574;BME280;2563;52.242;7.956;2023-02-19T01:03:24;100731.97;;;8.98;100.00
5574;BME280;2563;52.242;7.956;2023-02-19T01:05:51;100728.50;;;8.99;100.00
5574;BME280;2563;52.242;7.956;2023-02-19T01:08:16;100719.06;;;9.03;100.00
5574;BME280;2563;52.242;7.956;2023-02-19T01:10:43;100710.47;;;9.05;100.00
5574;BME280;2563;52.242;7.956;2023-02-19T01:13:09;100703.53;;;9.09;100.00
5574;BME280;2563;52.242;7.956;2023-02-19T01:15:34;100703.53;;;9.09;100.00
5574;BME280;2563;52.242;7.956;2023-02-19T01:17:59;100694.13;;;9.09;100.00
5574;BME280;2563;52.242;7.956;2023-02-19T01:20:25;100690.69;;;9.10;100.00
5574;BME280;2563;52.242;7.956;2023-02-19T01:22:51;100684.72;;;9.10;100.00
5574;BME280;2563;52.242;7.956;2023-02-19T01:25:16;100682.16;;;9.08;100.00
5574;BME280;2563;52.242;7.956;2023-02-19T01:27:42;100677.03;;;9.08;100.00
5574;BME280;2563;52.242;7.956;2023-02-19T01:30:08;100668.44;;;9.09;100.00
5574;BME280;2563;52.242;7.956;2023-02-19T01:32:33;100656.47;;;9.08;100.00
5574;BME280;2563;52.242;7.956;2023-02-19T01:34:59;100664.19;;;9.08;100.00
5574;BME280;2563;52.242;7.956;2023-02-19T01:37:24;100668.47;;;9.08;100.00
5574;BME280;2563;52.242;7.956;2023-02-19T01:39:49;100659.88;;;9.09;100.00
5574;BME280;2563;52.242;7.956;2023-02-19T01:42:15;100661.63;;;9.08;100.00
5574;BME280;2563;52.242;7.956;2023-02-19T01:47:10;100642.84;;;9.05;100.00
5574;BME280;2563;52.242;7.956;2023-02-19T01:49:41;100641.13;;;9.05;100.00
5574;BME280;2563;52.242;7.956;2023-02-19T01:52:17;100642.00;;;9.04;100.00
5574;BME280;2563;52.242;7.956;2023-02-19T01:54:47;100636.00;;;9.05;100.00
5574;BME280;2563;52.242;7.956;2023-02-19T01:57:20;100635.13;;;9.05;100.00
5574;BME280;2563;52.242;7.956;2023-02-19T01:59:51;100632.59;;;9.03;100.00
5574;BME280;2563;52.242;7.956;2023-02-19T02:02:20;100630.88;;;9.04;100.00
5574;BME280;2563;52.242;7.956;2023-02-19T02:04:46;100628.31;;;9.04;100.00
5574;BME280;2563;52.242;7.956;2023-02-19T02:07:11;100636.00;;;9.05;100.00
5574;BME280;2563;52.242;7.956;2023-02-19T02:09:56;100630.03;;;9.03;100.00
5574;BME280;2563;52.242;7.956;2023-02-19T02:12:39;100621.50;;;9.03;100.00
5574;BME280;2563;52.242;7.956;2023-02-19T02:15:05;100624.91;;;9.03;100.00
5574;BME280;2563;52.242;7.956;2023-02-19T02:18:04;100635.19;;;9.03;100.00
5574;BME280;2563;52.242;7.956;2023-02-19T02:21:20;100639.44;;;9.04;100.00
5574;BME280;2563;52.242;7.956;2023-02-19T02:24:31;100646.31;;;9.02;100.00
5574;BME280;2563;52.242;7.956;2023-02-19T02:32:32;100641.16;;;9.04;100.00
5574;BME280;2563;52.242;7.956;2023-02-19T02:35:04;100638.59;;;9.04;100.00
5574;BME280;2563;52.242;7.956;2023-02-19T02:37:33;100635.19;;;9.03;100.00
5574;BME280;2563;52.242;7.956;2023-02-19T02:40:01;100640.31;;;9.03;100.00
5574;BME280;2563;52.242;7.956;2023-02-19T02:42:26;100636.06;;;9.01;100.00
5574;BME280;2563;52.242;7.956;2023-02-19T02:44:56;100639.47;;;9.01;100.00
5574;BME280;2563;52.242;7.956;2023-02-19T02:47:58;100630.91;;;9.02;100.00
5574;BME280;2563;52.242;7.956;2023-02-19T02:50:31;100628.31;;;9.04;100.00
5574;BME280;2563;52.242;7.956;2023-02-19T02:53:01;100614.63;;;9.03;100.00
5574;BME280;2563;52.242;7.956;2023-02-19T02:55:57;100606.88;;;9.06;100.00
5574;BME280;2563;52.242;7.956;2023-02-19T02:58:25;100594.06;;;9.05;100.00
5574;BME280;2563;52.242;7.956;2023-02-19T03:00:56;100574.38;;;9.05;100.00
5574;BME280;2563;52.242;7.956;2023-02-19T03:03:43;100550.44;;;9.03;100.00
5574;BME280;2563;52.242;7.956;2023-02-19T03:06:11;100553.88;;;9.04;100.00
5574;BME280;2563;52.242;7.956;2023-02-19T03:08:45;100540.19;;;9.03;100.00
5574;BME280;2563;52.242;7.956;2023-02-19T03:11:11;100544.44;;;9.04;100.00
5574;BME280;2563;52.242;7.956;2023-02-19T03:14:10;100547.00;;;9.04;100.00
5574;BME280;2563;52.242;7.956;2023-02-19T03:17:00;100526.53;;;9.01;100.00
5574;BME280;2563;52.242;7.956;2023-02-19T03:19:50;100535.06;;;9.00;100.00
5574;BME280;2563;52.242;7.956;2023-02-19T03:22:21;100538.53;;;8.99;100.00
5574;BME280;2563;52.242;7.956;2023-02-19T03:24:52;100546.25;;;8.98;100.00
5574;BME280;2563;52.242;7.956;2023-02-19T03:27:38;100560.88;;;8.94;100.00
5574;BME280;2563;52.242;7.956;2023-02-19T03:30:09;100565.19;;;8.92;100.00
5574;BME280;2563;52.242;7.956;2023-02-19T03:32:41;100562.63;;;8.92;100.00
5574;BME280;2563;52.242;7.956;2023-02-19T03:35:12;100565.16;;;8.93;100.00
5574;BME280;2563;52.242;7.956;2023-02-19T03:37:43;100544.59;;;8.95;100.00
5574;BME280;2563;52.242;7.956;2023-02-19T03:40:11;100532.63;;;8.94;100.00
5574;BME280;2563;52.242;7.956;2023-02-19T03:43:00;100509.53;;;8.94;100.00
5574;BME280;2563;52.242;7.956;2023-02-19T03:45:54;100492.44;;;8.93;100.00
5574;BME280;2563;52.242;7.956;2023-02-19T03:56:17;100497.63;;;8.90;100.00
5574;BME280;2563;52.242;7.956;2023-02-19T04:01:47;100487.34;;;8.90;100.00
5574;BME280;2563;52.242;7.956;2023-02-19T04:06:53;100483.94;;;8.91;100.00
5574;BME280;2563;52.242;7.956;2023-02-19T04:09:25;100494.22;;;8.89;100.00
5574;BME280;2563;52.242;7.956;2023-02-19T04:11:53;100489.09;;;8.88;100.00
5574;BME280;2563;52.242;7.956;2023-02-19T04:14:27;100490.84;;;8.86;100.00
5574;BME280;2563;52.242;7.956;2023-02-19T04:16:58;100490.84;;;8.86;100.00
5574;BME280;2563;52.242;7.956;2023-02-19T04:19:26;100488.28;;;8.86;100.00
5574;BME280;2563;52.242;7.956;2023-02-19T04:21:54;100501.09;;;8.86;100.00
5574;BME280;2563;52.242;7.956;2023-02-19T04:24:30;100504.56;;;8.85;100.00
5574;BME280;2563;52.242;7.956;2023-02-19T04:26:57;100516.56;;;8.83;100.00
5574;BME280;2563;52.242;7.956;2023-02-19T04:29:23;100514.00;;;8.83;100.00
5574;BME280;2563;52.242;7.956;2023-02-19T04:31:48;100522.59;;;8.82;100.00
5574;BME280;2563;52.242;7.956;2023-02-19T04:34:14;100532.81;;;8.83;100.00
5574;BME280;2563;52.242;7.956;2023-02-19T04:36:39;100541.41;;;8.81;100.00
5574;BME280;2563;52.242;7.956;2023-02-19T04:39:04;100540.59;;;8.79;100.00
5574;BME280;2563;52.242;7.956;2023-02-19T04:41:32;100549.16;;;8.78;100.00
5574;BME280;2563;52.242;7.956;2023-02-19T04:43:57;100540.66;;;8.76;100.00
5574;BME280;2563;52.242;7.956;2023-02-19T04:46:23;100551.81;;;8.75;100.00
5574;BME280;2563;52.242;7.956;2023-02-19T04:48:48;100555.22;;;8.75;100.00
5574;BME280;2563;52.242;7.956;2023-02-19T04:51:13;100545.78;;;8.76;100.00
5574;BME280;2563;52.242;7.956;2023-02-19T04:53:39;100552.66;;;8.73;100.00
5574;BME280;2563;52.242;7.956;2023-02-19T04:56:09;100557.84;;;8.70;100.00
5574;BME280;2563;52.242;7.956;2023-02-19T04:58:35;100563.03;;;8.67;100.00
5574;BME280;2563;52.242;7.956;2023-02-19T05:01:01;100569.91;;;8.65;100.00
5574;BME280;2563;52.242;7.956;2023-02-19T05:03:27;100576.75;;;8.65;100.00
5574;BME280;2563;52.242;7.956;2023-02-19T05:05:52;100580.16;;;8.65;100.00
5574;BME280;2563;52.242;7.956;2023-02-19T05:08:17;100582.75;;;8.64;100.00
5574;BME280;2563;52.242;7.956;2023-02-19T05:10:43;100582.75;;;8.64;100.00
5574;BME280;2563;52.242;7.956;2023-02-19T05:13:08;100588.75;;;8.64;100.00
5574;BME280;2563;52.242;7.956;2023-02-19T05:15:34;100593.06;;;8.62;100.00
5574;BME280;2563;52.242;7.956;2023-02-19T05:18:00;100615.28;;;8.62;100.00
5574;BME280;2563;52.242;7.956;2023-02-19T05:20:25;100633.28;;;8.60;100.00
5574;BME280;2563;52.242;7.956;2023-02-19T05:22:50;100639.25;;;8.59;100.00
5574;BME280;2563;52.242;7.956;2023-02-19T05:25:16;100643.59;;;8.57;100.00
5574;BME280;2563;52.242;7.956;2023-02-19T05:27:41;100665.84;;;8.55;100.00
5574;BME280;2563;52.242;7.956;2023-02-19T05:30:07;100670.13;;;8.55;100.00
5574;BME280;2563;52.242;7.956;2023-02-19T05:32:34;100686.38;;;8.55;100.00
5574;BME280;2563;52.242;7.956;2023-02-19T05:34:59;100694.94;;;8.54;100.00
5574;BME280;2563;52.242;7.956;2023-02-19T05:37:24;100701.78;;;8.52;100.00
5574;BME280;2563;52.242;7.956;2023-02-19T05:39:50;100709.47;;;8.54;100.00
5574;BME280;2563;52.242;7.956;2023-02-19T05:42:15;100721.47;;;8.53;100.00
5574;BME280;2563;52.242;7.956;2023-02-19T05:44:41;100724.03;;;8.53;100.00
5574;BME280;2563;52.242;7.956;2023-02-19T05:47:07;100742.88;;;8.50;100.00
5574;BME280;2563;52.242;7.956;2023-02-19T05:49:32;100742.88;;;8.49;100.00
5574;BME280;2563;52.242;7.956;2023-02-19T05:51:57;100749.75;;;8.48;100.00
5574;BME280;2563;52.242;7.956;2023-02-19T05:54:23;100766.88;;;8.45;100.00
5574;BME280;2563;52.242;7.956;2023-02-19T05:56:48;100778.88;;;8.43;100.00
5574;BME280;2563;52.242;7.956;2023-02-19T05:59:16;100792.56;;;8.42;100.00
5574;BME280;2563;52.242;7.956;2023-02-19T06:01:42;100808.84;;;8.41;100.00
5574;BME280;2563;52.242;7.956;2023-02-19T06:04:11;100833.63;;;8.37;100.00
5574;BME280;2563;52.242;7.956;2023-02-19T06:06:37;100868.41;;;7.72;100.00
5574;BME280;2563;52.242;7.956;2023-02-19T06:09:04;100906.16;;;7.40;100.00
5574;BME280;2563;52.242;7.956;2023-02-19T06:11:29;100928.38;;;7.32;100.00
5574;BME280;2563;52.242;7.956;2023-02-19T06:13:55;100954.00;;;7.23;100.00
5574;BME280;2563;52.242;7.956;2023-02-19T06:16:20;100975.38;;;7.17;100.00
5574;BME280;2563;52.242;7.956;2023-02-19T06:18:46;101009.59;;;6.81;100.00
5574;BME280;2563;52.242;7.956;2023-02-19T06:21:13;101039.44;;;6.60;100.00
5574;BME280;2563;52.242;7.956;2023-02-19T06:23:39;101074.41;;;6.45;100.00
5574;BME280;2563;52.242;7.956;2023-02-19T06:26:09;101097.41;;;6.37;100.00
5574;BME280;2563;52.242;7.956;2023-02-19T06:28:35;101109.31;;;6.30;100.00
5574;BME280;2563;52.242;7.956;2023-02-19T06:31:01;101134.84;;;6.18;100.00
5574;BME280;2563;52.242;7.956;2023-02-19T06:33:27;101146.75;;;6.17;100.00
5574;BME280;2563;52.242;7.956;2023-02-19T06:35:53;101165.53;;;6.23;100.00
5574;BME280;2563;52.242;7.956;2023-02-19T06:38:21;101171.50;;;6.22;100.00
5574;BME280;2563;52.242;7.956;2023-02-19T06:40:47;101178.28;;;6.20;100.00
5574;BME280;2563;52.242;7.956;2023-02-19T06:43:12;101176.56;;;6.14;100.00
5574;BME280;2563;52.242;7.956;2023-02-19T06:45:37;101193.59;;;6.09;100.00
5574;BME280;2563;52.242;7.956;2023-02-19T06:48:03;101205.50;;;6.10;100.00
5574;BME280;2563;52.242;7.956;2023-02-19T06:50:29;101214.03;;;6.07;100.00
5574;BME280;2563;52.242;7.956;2023-02-19T06:52:55;101218.25;;;5.99;100.00
5574;BME280;2563;52.242;7.956;2023-02-19T06:55:20;101230.19;;;5.99;100.00
5574;BME280;2563;52.242;7.956;2023-02-19T06:57:45;101236.97;;;5.95;100.00
5574;BME280;2563;52.242;7.956;2023-02-19T07:00:11;101241.97;;;5.86;100.00
5574;BME280;2563;52.242;7.956;2023-02-19T07:02:36;101247.13;;;5.92;100.00
5574;BME280;2563;52.242;7.956;2023-02-19T07:05:02;101252.25;;;5.92;100.00
5574;BME280;2563;52.242;7.956;2023-02-19T07:07:27;101259.91;;;5.93;100.00
5574;BME280;2563;52.242;7.956;2023-02-19T07:09:52;101269.28;;;5.93;100.00
5574;BME280;2563;52.242;7.956;2023-02-19T07:12:18;101274.44;;;5.96;100.00
5574;BME280;2563;52.242;7.956;2023-02-19T07:14:43;101270.09;;;5.87;100.00
5574;BME280;2563;52.242;7.956;2023-02-19T07:17:08;101278.59;;;5.88;100.00
5574;BME280;2563;52.242;7.956;2023-02-19T07:19:34;101282.78;;;5.76;100.00
5574;BME280;2563;52.242;7.956;2023-02-19T07:21:59;101285.31;;;5.73;100.00
5574;BME280;2563;52.242;7.956;2023-02-19T07:24:25;101290.44;;;5.73;100.00
5574;BME280;2563;52.242;7.956;2023-02-19T07:26:50;101294.69;;;5.73;100.00
5574;BME280;2563;52.242;7.956;2023-02-19T07:29:16;101298.91;;;5.69;100.00
5574;BME280;2563;52.242;7.956;2023-02-19T07:31:41;101311.66;;;5.66;100.00
5574;BME280;2563;52.242;7.956;2023-02-19T07:34:07;101304.78;;;5.56;100.00
5574;BME280;2563;52.242;7.956;2023-02-19T07:36:32;101302.16;;;5.51;100.00
5574;BME280;2563;52.242;7.956;2023-02-19T07:38:58;101316.47;;;5.36;100.00
5574;BME280;2563;52.242;7.956;2023-02-19T07:41:25;101321.59;;;5.36;100.00
5574;BME280;2563;52.242;7.956;2023-02-19T07:43:50;101314.00;;;5.42;100.00
5574;BME280;2563;52.242;7.956;2023-02-19T07:46:16;101310.53;;;5.35;100.00
5574;BME280;2563;52.242;7.956;2023-02-19T07:48:42;101311.47;;;5.45;100.00
5574;BME280;2563;52.242;7.956;2023-02-19T07:51:16;101308.03;;;5.40;100.00
5574;BME280;2563;52.242;7.956;2023-02-19T07:53:44;101310.66;;;5.49;100.00
5574;BME280;2563;52.242;7.956;2023-02-19T07:56:10;101314.91;;;5.50;100.00
5574;BME280;2563;52.242;7.956;2023-02-19T07:58:36;101318.38;;;5.57;100.00
5574;BME280;2563;52.242;7.956;2023-02-19T08:03:34;101318.31;;;5.49;100.00
5574;BME280;2563;52.242;7.956;2023-02-19T08:05:59;101321.69;;;5.48;100.00
5574;BME280;2563;52.242;7.956;2023-02-19T08:08:25;101323.38;;;5.46;100.00
5574;BME280;2563;52.242;7.956;2023-02-19T08:10:50;101340.53;;;5.56;100.00
5574;BME280;2563;52.242;7.956;2023-02-19T08:13:34;101337.19;;;5.66;100.00
5574;BME280;2563;52.242;7.956;2023-02-19T08:18:29;101331.97;;;5.52;100.00
5574;BME280;2563;52.242;7.956;2023-02-19T08:20:55;101337.06;;;5.51;100.00
5574;BME280;2563;52.242;7.956;2023-02-19T08:23:21;101349.69;;;5.39;100.00
5574;BME280;2563;52.242;7.956;2023-02-19T08:25:49;101356.56;;;5.46;100.00
5574;BME280;2563;52.242;7.956;2023-02-19T08:28:15;101357.53;;;5.54;100.00
5574;BME280;2563;52.242;7.956;2023-02-19T08:30:42;101353.19;;;5.47;100.00
5574;BME280;2563;52.242;7.956;2023-02-19T08:33:10;101361.81;;;5.58;100.00
5574;BME280;2563;52.242;7.956;2023-02-19T08:35:36;101372.88;;;5.56;100.00
5574;BME280;2563;52.242;7.956;2023-02-19T08:38:03;101373.72;;;5.56;100.00
5574;BME280;2563;52.242;7.956;2023-02-19T08:40:29;101380.59;;;5.65;100.00
5574;BME280;2563;52.242;7.956;2023-02-19T08:42:54;101372.94;;;5.63;100.00
5574;BME280;2563;52.242;7.956;2023-02-19T08:45:20;101371.94;;;5.50;100.00
5574;BME280;2563;52.242;7.956;2023-02-19T08:47:47;101386.28;;;5.38;100.00
5574;BME280;2563;52.242;7.956;2023-02-19T08:50:12;101395.63;;;5.36;100.00
5574;BME280;2563;52.242;7.956;2023-02-19T08:52:38;101402.56;;;5.47;100.00
5574;BME280;2563;52.242;7.956;2023-02-19T08:55:04;101422.25;;;5.56;100.00
5574;BME280;2563;52.242;7.956;2023-02-19T08:57:29;101429.13;;;5.66;100.00
5574;BME280;2563;52.242;7.956;2023-02-19T08:59:55;101420.63;;;5.67;100.00
5574;BME280;2563;52.242;7.956;2023-02-19T09:02:22;101451.13;;;5.52;100.00
5574;BME280;2563;52.242;7.956;2023-02-19T09:04:48;101478.31;;;5.47;100.00
5574;BME280;2563;52.242;7.956;2023-02-19T09:07:14;101493.66;;;5.50;100.00
5574;BME280;2563;52.242;7.956;2023-02-19T09:09:40;101497.06;;;5.49;100.00
5574;BME280;2563;52.242;7.956;2023-02-19T09:12:06;101517.59;;;5.58;100.00
5574;BME280;2563;52.242;7.956;2023-02-19T09:14:33;101515.00;;;5.53;100.00
5574;BME280;2563;52.242;7.956;2023-02-19T09:17:00;101531.84;;;5.39;100.00
5574;BME280;2563;52.242;7.956;2023-02-19T09:19:26;101548.13;;;5.49;100.00
5574;BME280;2563;52.242;7.956;2023-02-19T09:21:52;101541.38;;;5.54;100.00
5574;BME280;2563;52.242;7.956;2023-02-19T09:24:17;101557.31;;;5.36;100.00
5574;BME280;2563;52.242;7.956;2023-02-19T09:26:42;101568.50;;;5.46;100.00
5574;BME280;2563;52.242;7.956;2023-02-19T09:29:08;101565.38;;;5.65;100.00
5574;BME280;2563;52.242;7.956;2023-02-19T09:31:33;101559.50;;;5.72;100.00
5574;BME280;2563;52.242;7.956;2023-02-19T09:33:59;101556.88;;;5.69;100.00
5574;BME280;2563;52.242;7.956;2023-02-19T09:36:24;101545.78;;;5.67;100.00
5574;BME280;2563;52.242;7.956;2023-02-19T09:38:50;101554.31;;;5.68;100.00
5574;BME280;2563;52.242;7.956;2023-02-19T09:43:45;101577.25;;;5.65;100.00
5574;BME280;2563;52.242;7.956;2023-02-19T09:48:46;101598.44;;;5.58;100.00
5574;BME280;2563;52.242;7.956;2023-02-19T09:51:13;101596.94;;;5.72;100.00
5574;BME280;2563;52.242;7.956;2023-02-19T09:53:43;101603.84;;;5.78;100.00
5574;BME280;2563;52.242;7.956;2023-02-19T09:56:11;101596.16;;;5.78;100.00
5574;BME280;2563;52.242;7.956;2023-02-19T09:58:47;101598.84;;;5.87;100.00
5574;BME280;2563;52.242;7.956;2023-02-19T10:01:14;101615.81;;;5.83;100.00
5574;BME280;2563;52.242;7.956;2023-02-19T10:03:43;101619.47;;;5.99;100.00
5574;BME280;2563;52.242;7.956;2023-02-19T10:06:17;101623.84;;;6.09;100.00
5574;BME280;2563;52.242;7.956;2023-02-19T10:08:45;101624.72;;;6.14;100.00
5574;BME280;2563;52.242;7.956;2023-02-19T10:11:11;101628.38;;;6.35;100.00
5574;BME280;2563;52.242;7.956;2023-02-19T10:13:44;101625.72;;;6.26;100.00
5574;BME280;2563;52.242;7.956;2023-02-19T10:16:17;101636.19;;;6.50;100.00
5574;BME280;2563;52.242;7.956;2023-02-19T10:18:44;101628.69;;;6.67;100.00
5574;BME280;2563;52.242;7.956;2023-02-19T10:21:16;101632.94;;;6.64;100.00
5574;BME280;2563;52.242;7.956;2023-02-19T10:23:44;101618.94;;;7.30;100.00
5574;BME280;2563;52.242;7.956;2023-02-19T10:26:11;101619.84;;;7.38;100.00
5574;BME280;2563;52.242;7.956;2023-02-19T10:28:36;101623.22;;;7.31;100.00
5574;BME280;2563;52.242;7.956;2023-02-19T10:31:06;101631.03;;;7.48;100.00
5574;BME280;2563;52.242;7.956;2023-02-19T10:33:47;101617.47;;;7.72;100.00
5574;BME280;2563;52.242;7.956;2023-02-19T10:38:59;101633.81;;;7.94;100.00
5574;BME280;2563;52.242;7.956;2023-02-19T10:41:26;101657.84;;;8.25;100.00
5574;BME280;2563;52.242;7.956;2023-02-19T10:46:29;101688.78;;;8.50;100.00
5574;BME280;2563;52.242;7.956;2023-02-19T10:48:57;101702.31;;;8.27;100.00
5574;BME280;2563;52.242;7.956;2023-02-19T10:51:39;101701.50;;;8.38;100.00
5574;BME280;2563;52.242;7.956;2023-02-19T10:54:15;101679.41;;;8.97;100.00
5574;BME280;2563;52.242;7.956;2023-02-19T10:56:41;101661.44;;;9.10;100.00
5574;BME280;2563;52.242;7.956;2023-02-19T10:59:27;101652.88;;;9.14;100.00
5574;BME280;2563;52.242;7.956;2023-02-19T11:02:01;101698.28;;;9.29;100.00
5574;BME280;2563;52.242;7.956;2023-02-19T11:04:31;101632.22;;;9.73;100.00
5574;BME280;2563;52.242;7.956;2023-02-19T11:07:14;101584.31;;;9.38;100.00
5574;BME280;2563;52.242;7.956;2023-02-19T11:09:46;101594.59;;;9.47;100.00
5574;BME280;2563;52.242;7.956;2023-02-19T11:12:24;101556.16;;;9.01;100.00
5574;BME280;2563;52.242;7.956;2023-02-19T11:14:51;101623.75;;;8.51;100.00
5574;BME280;2563;52.242;7.956;2023-02-19T11:17:27;101592.81;;;7.96;100.00
5574;BME280;2563;52.242;7.956;2023-02-19T11:19:56;101591.97;;;8.00;100.00
5574;BME280;2563;52.242;7.956;2023-02-19T11:22:32;101556.03;;;7.91;100.00
5574;BME280;2563;52.242;7.956;2023-02-19T11:25:05;101558.53;;;7.69;100.00
5574;BME280;2563;52.242;7.956;2023-02-19T11:27:31;101574.00;;;7.95;100.00
5574;BME280;2563;52.242;7.956;2023-02-19T11:32:45;101567.13;;;7.89;100.00
5574;BME280;2563;52.242;7.956;2023-02-19T11:35:19;101563.78;;;8.18;100.00
5574;BME280;2563;52.242;7.956;2023-02-19T11:37:54;101529.50;;;7.82;100.00
5574;BME280;2563;52.242;7.956;2023-02-19T11:40:28;101586.06;;;9.30;100.00
5574;BME280;2563;52.242;7.956;2023-02-19T11:43:09;101592.91;;;9.28;100.00
5574;BME280;2563;52.242;7.956;2023-02-19T11:45:51;101537.28;;;9.16;100.00
5574;BME280;2563;52.242;7.956;2023-02-19T11:48:31;101505.53;;;9.37;100.00
5574;BME280;2563;52.242;7.956;2023-02-19T11:54:32;101494.38;;;10.72;100.00
5574;BME280;2563;52.242;7.956;2023-02-19T11:57:15;101506.13;;;10.99;100.00
5574;BME280;2563;52.242;7.956;2023-02-19T11:59:52;101509.81;;;11.51;100.00
5574;BME280;2563;52.242;7.956;2023-02-19T12:02:50;101473.13;;;11.97;100.00
5574;BME280;2563;52.242;7.956;2023-02-19T12:05:33;101412.94;;;11.95;100.00
5574;BME280;2563;52.242;7.956;2023-02-19T12:08:21;101348.28;;;12.04;100.00
5574;BME280;2563;52.242;7.956;2023-02-19T12:14:21;101177.00;;;10.58;100.00
5574;BME280;2563;52.242;7.956;2023-02-19T12:22:25;101157.34;;;9.84;100.00
5574;BME280;2563;52.242;7.956;2023-02-19T12:25:17;101191.34;;;10.08;100.00
5574;BME280;2563;52.242;7.956;2023-02-19T12:31:14;101152.56;;;9.47;100.00
5574;BME280;2563;52.242;7.956;2023-02-19T12:39:12;101102.75;;;8.68;100.00
5574;BME280;2563;52.242;7.956;2023-02-19T12:44:25;101136.25;;;8.52;100.00
5574;BME280;2563;52.242;7.956;2023-02-19T12:47:00;101178.09;;;8.55;100.00
5574;BME280;2563;52.242;7.956;2023-02-19T12:49:39;101179.06;;;8.30;100.00
5574;BME280;2563;52.242;7.956;2023-02-19T12:52:15;101200.47;;;8.23;100.00
5574;BME280;2563;52.242;7.956;2023-02-19T12:54:45;101247.38;;;8.59;100.00
5574;BME280;2563;52.242;7.956;2023-02-19T12:57:18;101214.97;;;8.30;100.00
5574;BME280;2563;52.242;7.956;2023-02-19T13:00:03;101241.44;;;8.49;100.00
5574;BME280;2563;52.242;7.956;2023-02-19T13:05:41;101211.59;;;8.28;100.00
5574;BME280;2563;52.242;7.956;2023-02-19T13:10:53;101144.03;;;8.28;100.00
5574;BME280;2563;52.242;7.956;2023-02-19T13:14:02;101126.84;;;8.47;100.00
5574;BME280;2563;52.242;7.956;2023-02-19T13:16:26;101088.41;;;8.44;100.00
5574;BME280;2563;52.242;7.956;2023-02-19T13:18:59;101123.31;;;8.63;100.00
5574;BME280;2563;52.242;7.956;2023-02-19T13:21:29;101086.56;;;8.61;100.00
5574;BME280;2563;52.242;7.956;2023-02-19T13:24:26;101003.94;;;8.12;100.00
5574;BME280;2563;52.242;7.956;2023-02-19T13:35:15;101034.66;;;9.23;100.00
5574;BME280;2563;52.242;7.956;2023-02-19T13:37:44;100985.31;;;8.93;100.00
5574;BME280;2563;52.242;7.956;2023-02-19T13:42:56;100970.56;;;9.12;100.00
5574;BME280;2563;52.242;7.956;2023-02-19T13:45:42;100930.41;;;9.05;100.00
5574;BME280;2563;52.242;7.956;2023-02-19T13:48:41;100910.84;;;8.93;100.00
5574;BME280;2563;52.242;7.956;2023-02-19T14:04:21;100846.97;;;8.68;100.00
5574;BME280;2563;52.242;7.956;2023-02-19T14:17:47;100858.72;;;8.91;100.00
5574;BME280;2563;52.242;7.956;2023-02-19T14:33:25;100794.28;;;8.43;100.00
5574;BME280;2563;52.242;7.956;2023-02-19T14:35:54;100802.78;;;8.45;100.00
5574;BME280;2563;52.242;7.956;2023-02-19T14:38:29;100800.25;;;8.42;100.00
5574;BME280;2563;52.242;7.956;2023-02-19T14:40:57;100802.66;;;8.57;100.00
5574;BME280;2563;52.242;7.956;2023-02-19T14:43:24;100809.28;;;8.73;100.00
5574;BME280;2563;52.242;7.956;2023-02-19T14:45:58;100802.31;;;8.85;100.00
5574;BME280;2563;52.242;7.956;2023-02-19T14:48:33;100776.88;;;8.66;100.00
5574;BME280;2563;52.242;7.956;2023-02-19T14:51:06;100756.38;;;8.63;100.00
5574;BME280;2563;52.242;7.956;2023-02-19T14:53:38;100721.59;;;8.42;100.00
5574;BME280;2563;52.242;7.956;2023-02-19T14:56:17;100708.03;;;8.28;100.00
5574;BME280;2563;52.242;7.956;2023-02-19T14:58:43;100687.69;;;8.17;100.00
5574;BME280;2563;52.242;7.956;2023-02-19T15:01:26;100700.28;;;8.36;100.00
5574;BME280;2563;52.242;7.956;2023-02-19T15:03:53;100709.59;;;8.44;100.00
5574;BME280;2563;52.242;7.956;2023-02-19T15:06:18;100711.16;;;8.55;100.00
5574;BME280;2563;52.242;7.956;2023-02-19T15:08:46;100709.47;;;8.55;100.00
5574;BME280;2563;52.242;7.956;2023-02-19T15:11:20;100676.19;;;8.49;100.00
5574;BME280;2563;52.242;7.956;2023-02-19T15:13:54;100653.16;;;8.44;100.00
5574;BME280;2563;52.242;7.956;2023-02-19T15:16:21;100647.28;;;8.35;100.00
5574;BME280;2563;52.242;7.956;2023-02-19T15:18:48;100656.63;;;8.39;100.00
5574;BME280;2563;52.242;7.956;2023-02-19T15:21:25;100663.47;;;8.43;100.00
5574;BME280;2563;52.242;7.956;2023-02-19T15:23:56;100657.47;;;8.42;100.00